Terminal Aerodrome Forecast
Issued by NWS Louisville, KY

Home | Current Version | Previous Version | Text Only | Print | Product List | Glossary On
Versions: 1 2 3 4 5 6 7 8 9 10 11 12 13 14 15
000
FTUS43 KLMK 230119 AAA
TAFLEX
TAF AMD
KLEX 230119Z 2301/2324 14006KT P6SM FEW100 SCT250
     FM230700 15009KT P6SM VCSH SCT060 BKN100
      TEMPO 2309/2313 4SM -SHRA SCT025 BKN040
     FM231300 16010KT 5SM -SHRA BKN025
     FM231700 19012G18KT P6SM VCSH BKN022
     FM232000 22012G18KT P6SM VCSH BKN015=

USA.gov is the U.S. government's official web portal to all federal, state and local government web resources and services.